Terminal Aerodrome Forecast
Issued by NWS

Home | Current Version | Previous Version | Text Only | Print | Product List | Glossary On
Versions: 1 2 3 4 5 6 7 8 9 10 11 12 13
000
FTUS45 KTFX 300343 AAA
TAFLWT
TAF AMD
KLWT 300343Z 3004/3024 17012KT P6SM BKN120
     FM300500 17010KT P6SM BKN120
      TEMPO 3005/3009 -SHRA BKN080
     FM301200 26008KT P6SM SKC
     FM301700 31018G25KT P6SM SCT070=

USA.gov is the U.S. government's official web portal to all federal, state and local government web resources and services.